sensor_id;sensor_type;location;lat;lon;timestamp;pressure;altitude;pressure_sealevel;temperature;humidity
77871;BME280;67067;46.850;7.578;2023-11-19T00:00:36;95706.88;;;5.08;56.13
77871;BME280;67067;46.850;7.578;2023-11-19T00:01:40;95708.94;;;4.99;56.63
77871;BME280;67067;46.850;7.578;2023-11-19T00:02:42;95710.56;;;5.00;56.43
77871;BME280;67067;46.850;7.578;2023-11-19T00:03:47;95707.31;;;5.05;56.23
77871;BME280;67067;46.850;7.578;2023-11-19T00:04:51;95710.56;;;5.00;56.23
77871;BME280;67067;46.850;7.578;2023-11-19T00:05:53;95708.75;;;4.88;56.41
77871;BME280;67067;46.850;7.578;2023-11-19T00:06:57;95700.66;;;4.96;56.24
77871;BME280;67067;46.850;7.578;2023-11-19T00:08:04;95705.72;;;4.97;56.33
77871;BME280;67067;46.850;7.578;2023-11-19T00:09:07;95700.47;;;4.97;56.40
77871;BME280;67067;46.850;7.578;2023-11-19T00:10:10;95707.09;;;5.00;56.31
77871;BME280;67067;46.850;7.578;2023-11-19T00:11:13;95696.00;;;4.98;56.18
77871;BME280;67067;46.850;7.578;2023-11-19T00:12:17;95693.38;;;4.98;55.93
77871;BME280;67067;46.850;7.578;2023-11-19T00:13:20;95697.66;;;4.92;56.19
77871;BME280;67067;46.850;7.578;2023-11-19T00:14:21;95700.06;;;4.74;56.73
77871;BME280;67067;46.850;7.578;2023-11-19T00:15:23;95692.63;;;4.84;56.53
77871;BME280;67067;46.850;7.578;2023-11-19T00:16:25;95693.81;;;4.88;56.24
77871;BME280;67067;46.850;7.578;2023-11-19T00:17:27;95688.97;;;4.71;56.37
77871;BME280;67067;46.850;7.578;2023-11-19T00:18:29;95679.91;;;4.81;56.44
77871;BME280;67067;46.850;7.578;2023-11-19T00:19:31;95689.59;;;4.80;56.46
77871;BME280;67067;46.850;7.578;2023-11-19T00:20:33;95690.59;;;4.79;56.21
77871;BME280;67067;46.850;7.578;2023-11-19T00:21:35;95687.97;;;4.79;56.53
77871;BME280;67067;46.850;7.578;2023-11-19T00:22:44;95684.75;;;4.70;56.28
77871;BME280;67067;46.850;7.578;2023-11-19T00:23:51;95687.34;;;4.70;56.52
77871;BME280;67067;46.850;7.578;2023-11-19T00:24:53;95687.16;;;4.65;56.66
77871;BME280;67067;46.850;7.578;2023-11-19T00:25:58;95686.38;;;4.65;56.43
77871;BME280;67067;46.850;7.578;2023-11-19T00:27:00;95680.94;;;4.60;56.53
77871;BME280;67067;46.850;7.578;2023-11-19T00:28:02;95678.72;;;4.56;56.39
77871;BME280;67067;46.850;7.578;2023-11-19T00:29:04;95678.28;;;4.53;56.46
77871;BME280;67067;46.850;7.578;2023-11-19T00:30:08;95687.78;;;4.47;56.55
77871;BME280;67067;46.850;7.578;2023-11-19T00:31:10;95684.34;;;4.47;56.86
77871;BME280;67067;46.850;7.578;2023-11-19T00:32:12;95682.13;;;4.43;56.48
77871;BME280;67067;46.850;7.578;2023-11-19T00:33:14;95688.78;;;4.39;56.60
77871;BME280;67067;46.850;7.578;2023-11-19T00:34:16;95682.72;;;4.39;56.61
77871;BME280;67067;46.850;7.578;2023-11-19T00:35:20;95679.88;;;4.34;56.75
77871;BME280;67067;46.850;7.578;2023-11-19T00:36:22;95674.25;;;4.30;56.81
77871;BME280;67067;46.850;7.578;2023-11-19T00:37:25;95676.28;;;4.28;56.87
77871;BME280;67067;46.850;7.578;2023-11-19T00:38:27;95675.84;;;4.24;57.09
77871;BME280;67067;46.850;7.578;2023-11-19T00:39:29;95665.53;;;4.09;57.21
77871;BME280;67067;46.850;7.578;2023-11-19T00:40:30;95674.25;;;4.17;56.93
77871;BME280;67067;46.850;7.578;2023-11-19T00:41:37;95667.41;;;4.16;57.20
77871;BME280;67067;46.850;7.578;2023-11-19T00:42:39;95667.41;;;4.16;57.16
77871;BME280;67067;46.850;7.578;2023-11-19T00:43:40;95669.41;;;4.13;57.05
77871;BME280;67067;46.850;7.578;2023-11-19T00:44:42;95667.78;;;4.12;56.97
77871;BME280;67067;46.850;7.578;2023-11-19T00:45:51;95667.38;;;4.09;57.34
77871;BME280;67067;46.850;7.578;2023-11-19T00:46:53;95664.94;;;4.07;57.27
77871;BME280;67067;46.850;7.578;2023-11-19T00:47:55;95666.75;;;4.00;57.58
77871;BME280;67067;46.850;7.578;2023-11-19T00:49:03;95681.66;;;3.99;57.43
77871;BME280;67067;46.850;7.578;2023-11-19T00:50:06;95676.63;;;3.91;57.88
77871;BME280;67067;46.850;7.578;2023-11-19T00:51:11;95680.25;;;3.97;57.54
77871;BME280;67067;46.850;7.578;2023-11-19T00:52:14;95676.81;;;3.96;57.71
77871;BME280;67067;46.850;7.578;2023-11-19T00:53:16;95681.47;;;3.94;57.44
77871;BME280;67067;46.850;7.578;2023-11-19T00:54:20;95683.88;;;3.96;57.62
77871;BME280;67067;46.850;7.578;2023-11-19T00:55:25;95680.63;;;3.94;57.74
77871;BME280;67067;46.850;7.578;2023-11-19T00:56:29;95676.63;;;3.91;57.79
77871;BME280;67067;46.850;7.578;2023-11-19T00:57:31;95673.00;;;3.92;57.85
77871;BME280;67067;46.850;7.578;2023-11-19T00:58:34;95676.16;;;3.88;57.64
77871;BME280;67067;46.850;7.578;2023-11-19T00:59:35;95681.38;;;3.74;57.83
77871;BME280;67067;46.850;7.578;2023-11-19T01:00:37;95673.34;;;3.82;57.84
77871;BME280;67067;46.850;7.578;2023-11-19T01:01:39;95672.50;;;3.75;57.83
77871;BME280;67067;46.850;7.578;2023-11-19T01:02:40;95684.59;;;3.76;58.04
77871;BME280;67067;46.850;7.578;2023-11-19T01:03:43;95675.34;;;3.80;58.10
77871;BME280;67067;46.850;7.578;2023-11-19T01:04:45;95670.31;;;3.79;57.97
77871;BME280;67067;46.850;7.578;2023-11-19T01:05:47;95682.16;;;3.75;58.34
77871;BME280;67067;46.850;7.578;2023-11-19T01:06:51;95682.97;;;3.75;58.07
77871;BME280;67067;46.850;7.578;2023-11-19T01:07:56;95675.13;;;3.75;58.16
77871;BME280;67067;46.850;7.578;2023-11-19T01:08:58;95672.94;;;3.79;58.16
77871;BME280;67067;46.850;7.578;2023-11-19T01:10:03;95680.78;;;3.79;58.03
77871;BME280;67067;46.850;7.578;2023-11-19T01:11:07;95681.41;;;3.81;58.24
77871;BME280;67067;46.850;7.578;2023-11-19T01:12:09;95685.63;;;3.82;57.95
77871;BME280;67067;46.850;7.578;2023-11-19T01:13:14;95676.31;;;3.66;58.42
77871;BME280;67067;46.850;7.578;2023-11-19T01:14:18;95675.53;;;3.72;58.58
77871;BME280;67067;46.850;7.578;2023-11-19T01:15:22;95685.59;;;3.75;58.39
77871;BME280;67067;46.850;7.578;2023-11-19T01:16:26;95684.19;;;3.79;58.27
77871;BME280;67067;46.850;7.578;2023-11-19T01:17:27;95677.56;;;3.83;58.30
77871;BME280;67067;46.850;7.578;2023-11-19T01:18:33;95679.34;;;3.76;58.34
77871;BME280;67067;46.850;7.578;2023-11-19T01:19:35;95675.16;;;3.82;58.55
77871;BME280;67067;46.850;7.578;2023-11-19T01:20:37;95680.94;;;3.64;58.71
77871;BME280;67067;46.850;7.578;2023-11-19T01:21:38;95683.00;;;3.82;58.62
77871;BME280;67067;46.850;7.578;2023-11-19T01:22:43;95673.94;;;3.84;58.31
77871;BME280;67067;46.850;7.578;2023-11-19T01:23:47;95672.69;;;3.74;58.69
77871;BME280;67067;46.850;7.578;2023-11-19T01:24:49;95676.94;;;3.81;58.33
77871;BME280;67067;46.850;7.578;2023-11-19T01:25:51;95665.69;;;3.88;58.47
77871;BME280;67067;46.850;7.578;2023-11-19T01:26:53;95668.06;;;3.76;58.72
77871;BME280;67067;46.850;7.578;2023-11-19T01:27:55;95666.50;;;3.88;58.16
77871;BME280;67067;46.850;7.578;2023-11-19T01:29:00;95673.78;;;3.93;58.24
77871;BME280;67067;46.850;7.578;2023-11-19T01:30:05;95670.75;;;3.96;58.16
77871;BME280;67067;46.850;7.578;2023-11-19T01:31:11;95671.38;;;3.98;57.96
77871;BME280;67067;46.850;7.578;2023-11-19T01:32:14;95668.19;;;4.03;57.83
77871;BME280;67067;46.850;7.578;2023-11-19T01:33:16;95659.69;;;3.94;58.20
77871;BME280;67067;46.850;7.578;2023-11-19T01:34:17;95661.72;;;4.05;57.89
77871;BME280;67067;46.850;7.578;2023-11-19T01:35:22;95656.91;;;4.09;57.97
77871;BME280;67067;46.850;7.578;2023-11-19T01:36:28;95665.53;;;4.09;57.83
77871;BME280;67067;46.850;7.578;2023-11-19T01:37:33;95672.03;;;4.13;58.00
77871;BME280;67067;46.850;7.578;2023-11-19T01:38:37;95667.19;;;4.17;57.84
77871;BME280;67067;46.850;7.578;2023-11-19T01:39:44;95669.00;;;4.17;57.65
77871;BME280;67067;46.850;7.578;2023-11-19T01:40:58;95662.75;;;4.18;57.62
77871;BME280;67067;46.850;7.578;2023-11-19T01:42:00;95650.88;;;4.22;57.37
77871;BME280;67067;46.850;7.578;2023-11-19T01:43:02;95664.34;;;4.05;57.78
77871;BME280;67067;46.850;7.578;2023-11-19T01:44:05;95673.03;;;4.19;57.92
77871;BME280;67067;46.850;7.578;2023-11-19T01:45:21;95670.22;;;4.21;57.58
77871;BME280;67067;46.850;7.578;2023-11-19T01:46:26;95673.22;;;4.24;57.51
77871;BME280;67067;46.850;7.578;2023-11-19T01:47:30;95667.81;;;4.26;57.82
77871;BME280;67067;46.850;7.578;2023-11-19T01:48:34;95662.16;;;4.29;57.68
77871;BME280;67067;46.850;7.578;2023-11-19T01:49:37;95675.06;;;4.24;57.68
77871;BME280;67067;46.850;7.578;2023-11-19T01:50:39;95663.78;;;4.17;58.04
77871;BME280;67067;46.850;7.578;2023-11-19T01:51:41;95662.56;;;4.26;57.84
77871;BME280;67067;46.850;7.578;2023-11-19T01:52:46;95652.06;;;4.33;57.99
77871;BME280;67067;46.850;7.578;2023-11-19T01:53:49;95664.38;;;4.32;57.54
77871;BME280;67067;46.850;7.578;2023-11-19T01:54:53;95659.13;;;4.39;57.40
77871;BME280;67067;46.850;7.578;2023-11-19T01:55:56;95656.50;;;4.39;57.44
77871;BME280;67067;46.850;7.578;2023-11-19T01:56:58;95654.09;;;4.37;57.60
77871;BME280;67067;46.850;7.578;2023-11-19T01:58:01;95646.63;;;4.41;57.75
77871;BME280;67067;46.850;7.578;2023-11-19T01:59:03;95633.34;;;4.42;57.47
77871;BME280;67067;46.850;7.578;2023-11-19T02:12:45;95621.81;;;4.37;57.06
77871;BME280;67067;46.850;7.578;2023-11-19T02:13:48;95608.53;;;4.32;57.14
77871;BME280;67067;46.850;7.578;2023-11-19T02:14:52;95625.88;;;4.26;57.35
77871;BME280;67067;46.850;7.578;2023-11-19T02:15:53;95624.03;;;4.13;57.23
77871;BME280;67067;46.850;7.578;2023-11-19T02:16:57;95621.03;;;4.23;57.27
77871;BME280;67067;46.850;7.578;2023-11-19T02:18:17;95625.28;;;4.10;57.20
77871;BME280;67067;46.850;7.578;2023-11-19T02:19:20;95619.41;;;4.15;57.27
77871;BME280;67067;46.850;7.578;2023-11-19T02:20:22;95620.44;;;4.21;57.38
77871;BME280;67067;46.850;7.578;2023-11-19T02:21:24;95613.38;;;4.21;57.12
77871;BME280;67067;46.850;7.578;2023-11-19T02:22:28;95624.66;;;4.22;57.34
77871;BME280;67067;46.850;7.578;2023-11-19T02:23:30;95621.44;;;4.20;57.31
77871;BME280;67067;46.850;7.578;2023-11-19T02:24:32;95617.81;;;4.21;57.21
77871;BME280;67067;46.850;7.578;2023-11-19T02:25:36;95614.19;;;4.22;57.40
77871;BME280;67067;46.850;7.578;2023-11-19T02:26:58;95622.84;;;4.22;57.46
77871;BME280;67067;46.850;7.578;2023-11-19T02:28:03;95605.53;;;4.28;57.14
77871;BME280;67067;46.850;7.578;2023-11-19T02:29:06;95612.56;;;4.27;57.34
77871;BME280;67067;46.850;7.578;2023-11-19T02:30:10;95617.00;;;4.27;57.28
77871;BME280;67067;46.850;7.578;2023-11-19T02:31:12;95611.75;;;4.27;57.38
77871;BME280;67067;46.850;7.578;2023-11-19T02:32:15;95602.91;;;4.28;57.28
77871;BME280;67067;46.850;7.578;2023-11-19T02:33:17;95611.56;;;4.22;57.82
77871;BME280;67067;46.850;7.578;2023-11-19T02:34:19;95600.47;;;4.26;57.71
77871;BME280;67067;46.850;7.578;2023-11-19T02:35:22;95600.28;;;4.28;57.48
77871;BME280;67067;46.850;7.578;2023-11-19T02:36:26;95603.88;;;4.34;57.36
77871;BME280;67067;46.850;7.578;2023-11-19T02:37:28;95596.63;;;4.36;57.42
77871;BME280;67067;46.850;7.578;2023-11-19T02:38:30;95589.19;;;4.26;57.62
77871;BME280;67067;46.850;7.578;2023-11-19T02:39:32;95581.50;;;4.24;57.76
77871;BME280;67067;46.850;7.578;2023-11-19T02:40:34;95585.97;;;4.37;57.65
77871;BME280;67067;46.850;7.578;2023-11-19T02:41:36;95587.56;;;4.45;57.70
77871;BME280;67067;46.850;7.578;2023-11-19T02:42:38;95589.78;;;4.41;57.64
77871;BME280;67067;46.850;7.578;2023-11-19T02:43:40;95592.81;;;4.45;58.07
77871;BME280;67067;46.850;7.578;2023-11-19T02:44:45;95587.16;;;4.48;57.98
77871;BME280;67067;46.850;7.578;2023-11-19T02:45:47;95583.31;;;4.51;57.47
77871;BME280;67067;46.850;7.578;2023-11-19T02:46:49;95578.66;;;4.53;57.88
77871;BME280;67067;46.850;7.578;2023-11-19T02:47:52;95574.03;;;4.55;57.52
77871;BME280;67067;46.850;7.578;2023-11-19T02:48:58;95574.63;;;4.57;57.77
77871;BME280;67067;46.850;7.578;2023-11-19T02:50:01;95578.66;;;4.60;57.68
77871;BME280;67067;46.850;7.578;2023-11-19T02:51:04;95573.44;;;4.60;57.66
77871;BME280;67067;46.850;7.578;2023-11-19T02:52:06;95573.03;;;4.56;58.00
77871;BME280;67067;46.850;7.578;2023-11-19T02:53:08;95572.41;;;4.54;57.84
77871;BME280;67067;46.850;7.578;2023-11-19T02:54:10;95576.69;;;4.48;58.06
77871;BME280;67067;46.850;7.578;2023-11-19T02:55:14;95586.53;;;4.53;58.08
77871;BME280;67067;46.850;7.578;2023-11-19T02:56:16;95584.72;;;4.60;57.83
77871;BME280;67067;46.850;7.578;2023-11-19T02:57:31;95597.63;;;4.62;57.63
77871;BME280;67067;46.850;7.578;2023-11-19T02:58:32;95588.94;;;4.61;58.05
77871;BME280;67067;46.850;7.578;2023-11-19T02:59:39;95588.94;;;4.68;57.82
77871;BME280;67067;46.850;7.578;2023-11-19T03:00:43;95585.31;;;4.69;57.81
77871;BME280;67067;46.850;7.578;2023-11-19T03:01:54;95576.22;;;4.71;57.68
77871;BME280;67067;46.850;7.578;2023-11-19T03:02:56;95581.84;;;4.75;57.64
77871;BME280;67067;46.850;7.578;2023-11-19T03:04:07;95578.41;;;4.75;57.55
77871;BME280;67067;46.850;7.578;2023-11-19T03:05:12;95572.78;;;4.78;57.35
77871;BME280;67067;46.850;7.578;2023-11-19T03:06:16;95565.28;;;4.81;57.59
77871;BME280;67067;46.850;7.578;2023-11-19T03:07:18;95580.06;;;4.62;57.56
77871;BME280;67067;46.850;7.578;2023-11-19T03:08:19;95572.78;;;4.71;57.60
77871;BME280;67067;46.850;7.578;2023-11-19T03:09:24;95569.75;;;4.74;57.39
77871;BME280;67067;46.850;7.578;2023-11-19T03:10:29;95560.69;;;4.63;57.69
77871;BME280;67067;46.850;7.578;2023-11-19T03:11:31;95558.06;;;4.77;57.73
77871;BME280;67067;46.850;7.578;2023-11-19T03:12:35;95558.44;;;4.80;57.31
77871;BME280;67067;46.850;7.578;2023-11-19T03:13:37;95549.19;;;4.64;57.61
77871;BME280;67067;46.850;7.578;2023-11-19T03:14:40;95544.75;;;4.71;57.49
77871;BME280;67067;46.850;7.578;2023-11-19T03:15:42;95548.56;;;4.76;57.06
77871;BME280;67067;46.850;7.578;2023-11-19T03:16:47;95552.81;;;4.77;57.18
77871;BME280;67067;46.850;7.578;2023-11-19T03:17:49;95558.44;;;4.80;57.17
77871;BME280;67067;46.850;7.578;2023-11-19T03:18:51;95560.69;;;4.77;57.36
77871;BME280;67067;46.850;7.578;2023-11-19T03:19:54;95559.47;;;4.79;57.10
77871;BME280;67067;46.850;7.578;2023-11-19T03:20:55;95565.75;;;4.65;57.75
77871;BME280;67067;46.850;7.578;2023-11-19T03:22:01;95553.41;;;4.79;57.33
77871;BME280;67067;46.850;7.578;2023-11-19T03:23:03;95561.88;;;4.81;57.46
77871;BME280;67067;46.850;7.578;2023-11-19T03:24:08;95553.00;;;4.82;57.32
77871;BME280;67067;46.850;7.578;2023-11-19T03:25:10;95549.97;;;4.85;57.02
77871;BME280;67067;46.850;7.578;2023-11-19T03:26:12;95541.09;;;4.86;57.43
77871;BME280;67067;46.850;7.578;2023-11-19T03:27:14;95544.50;;;4.86;57.09
77871;BME280;67067;46.850;7.578;2023-11-19T03:28:19;95540.31;;;4.72;57.38
77871;BME280;67067;46.850;7.578;2023-11-19T03:29:26;95538.88;;;4.83;57.54
77871;BME280;67067;46.850;7.578;2023-11-19T03:30:28;95541.69;;;4.88;57.53
77871;BME280;67067;46.850;7.578;2023-11-19T03:31:33;95534.41;;;4.90;57.58
77871;BME280;67067;46.850;7.578;2023-11-19T03:32:34;95543.53;;;4.81;57.75
77871;BME280;67067;46.850;7.578;2023-11-19T03:33:37;95542.50;;;4.82;57.44
77871;BME280;67067;46.850;7.578;2023-11-19T03:34:42;95547.91;;;4.94;57.19
77871;BME280;67067;46.850;7.578;2023-11-19T03:35:46;95547.09;;;4.93;57.28
77871;BME280;67067;46.850;7.578;2023-11-19T03:36:50;95540.63;;;4.96;57.52
77871;BME280;67067;46.850;7.578;2023-11-19T03:37:52;95537.00;;;4.97;57.43
77871;BME280;67067;46.850;7.578;2023-11-19T03:38:54;95534.66;;;4.75;58.25
77871;BME280;67067;46.850;7.578;2023-11-19T03:39:59;95539.06;;;4.81;57.94
77871;BME280;67067;46.850;7.578;2023-11-19T03:41:14;95537.03;;;4.90;58.00
77871;BME280;67067;46.850;7.578;2023-11-19T03:42:16;95541.44;;;4.96;57.94
77871;BME280;67067;46.850;7.578;2023-11-19T03:43:18;95541.81;;;5.00;58.02
77871;BME280;67067;46.850;7.578;2023-11-19T03:44:26;95543.25;;;5.03;57.86
77871;BME280;67067;46.850;7.578;2023-11-19T03:45:28;95541.81;;;5.07;58.00
77871;BME280;67067;46.850;7.578;2023-11-19T03:46:35;95542.41;;;5.09;57.68
77871;BME280;67067;46.850;7.578;2023-11-19T03:47:38;95536.75;;;5.12;57.90
77871;BME280;67067;46.850;7.578;2023-11-19T03:48:42;95539.59;;;5.10;57.86
77871;BME280;67067;46.850;7.578;2023-11-19T03:49:51;95532.69;;;5.09;58.14
77871;BME280;67067;46.850;7.578;2023-11-19T03:50:58;95538.16;;;5.14;57.99
77871;BME280;67067;46.850;7.578;2023-11-19T03:51:59;95527.66;;;5.14;57.98
77871;BME280;67067;46.850;7.578;2023-11-19T03:53:01;95527.66;;;5.14;58.26
77871;BME280;67067;46.850;7.578;2023-11-19T03:54:05;95524.00;;;5.15;57.94
77871;BME280;67067;46.850;7.578;2023-11-19T03:55:08;95520.75;;;5.20;58.27
77871;BME280;67067;46.850;7.578;2023-11-19T03:56:11;95510.41;;;5.25;57.83
77871;BME280;67067;46.850;7.578;2023-11-19T03:57:13;95506.78;;;5.26;58.04
77871;BME280;67067;46.850;7.578;2023-11-19T03:58:15;95508.81;;;5.24;58.31
77871;BME280;67067;46.850;7.578;2023-11-19T03:59:19;95505.59;;;5.22;58.38
77871;BME280;67067;46.850;7.578;2023-11-19T04:00:22;95507.78;;;5.25;58.34
77871;BME280;67067;46.850;7.578;2023-11-19T04:01:23;95508.22;;;5.22;58.39
77871;BME280;67067;46.850;7.578;2023-11-19T04:02:25;95508.13;;;5.36;58.35
77871;BME280;67067;46.850;7.578;2023-11-19T04:03:30;95514.19;;;5.43;57.91
77871;BME280;67067;46.850;7.578;2023-11-19T04:04:33;95512.16;;;5.45;58.05
77871;BME280;67067;46.850;7.578;2023-11-19T04:05:35;95511.50;;;5.50;57.93
77871;BME280;67067;46.850;7.578;2023-11-19T04:06:37;95519.81;;;5.40;58.41
77871;BME280;67067;46.850;7.578;2023-11-19T04:07:38;95518.97;;;5.53;57.92
77871;BME280;67067;46.850;7.578;2023-11-19T04:08:40;95517.41;;;5.45;58.20
77871;BME280;67067;46.850;7.578;2023-11-19T04:09:42;95503.63;;;5.56;57.92
77871;BME280;67067;46.850;7.578;2023-11-19T04:10:44;95508.81;;;5.63;57.92
77871;BME280;67067;46.850;7.578;2023-11-19T04:11:47;95516.25;;;5.66;57.69
77871;BME280;67067;46.850;7.578;2023-11-19T04:12:48;95524.13;;;5.66;57.58
77871;BME280;67067;46.850;7.578;2023-11-19T04:13:53;95534.44;;;5.68;57.86
77871;BME280;67067;46.850;7.578;2023-11-19T04:14:54;95535.63;;;5.72;57.46
77871;BME280;67067;46.850;7.578;2023-11-19T04:16:00;95536.22;;;5.74;57.50
77871;BME280;67067;46.850;7.578;2023-11-19T04:17:05;95533.34;;;5.76;57.44
77871;BME280;67067;46.850;7.578;2023-11-19T04:18:07;95530.53;;;5.77;57.75
77871;BME280;67067;46.850;7.578;2023-11-19T04:19:11;95529.31;;;5.80;57.56
77871;BME280;67067;46.850;7.578;2023-11-19T04:20:13;95523.63;;;5.83;57.32
77871;BME280;67067;46.850;7.578;2023-11-19T04:21:16;95530.69;;;5.82;57.51
77871;BME280;67067;46.850;7.578;2023-11-19T04:22:23;95528.06;;;5.82;57.33
77871;BME280;67067;46.850;7.578;2023-11-19T04:23:25;95542.19;;;5.88;57.33
77871;BME280;67067;46.850;7.578;2023-11-19T04:24:27;95537.63;;;5.77;57.65
77871;BME280;67067;46.850;7.578;2023-11-19T04:25:32;95545.00;;;5.86;57.46
77871;BME280;67067;46.850;7.578;2023-11-19T04:26:34;95546.19;;;5.91;57.45
77871;BME280;67067;46.850;7.578;2023-11-19T04:27:36;95546.47;;;5.82;57.20
77871;BME280;67067;46.850;7.578;2023-11-19T04:28:37;95549.84;;;5.90;57.08
77871;BME280;67067;46.850;7.578;2023-11-19T04:29:39;95542.34;;;5.93;57.25
77871;BME280;67067;46.850;7.578;2023-11-19T04:30:41;95555.34;;;5.81;57.29
77871;BME280;67067;46.850;7.578;2023-11-19T04:31:43;95555.09;;;5.90;57.14
77871;BME280;67067;46.850;7.578;2023-11-19T04:32:49;95564.16;;;5.94;57.09
77871;BME280;67067;46.850;7.578;2023-11-19T04:33:51;95580.75;;;5.94;56.99
77871;BME280;67067;46.850;7.578;2023-11-19T04:34:53;95571.63;;;5.97;57.06
77871;BME280;67067;46.850;7.578;2023-11-19T04:35:55;95569.31;;;5.82;57.32
77871;BME280;67067;46.850;7.578;2023-11-19T04:36:57;95570.84;;;5.90;57.36
77871;BME280;67067;46.850;7.578;2023-11-19T04:38:14;95564.81;;;5.89;57.38
77871;BME280;67067;46.850;7.578;2023-11-19T04:39:15;95569.84;;;5.91;57.30
77871;BME280;67067;46.850;7.578;2023-11-19T04:40:22;95572.47;;;5.91;57.34
77871;BME280;67067;46.850;7.578;2023-11-19T04:41:24;95578.75;;;5.90;57.40
77871;BME280;67067;46.850;7.578;2023-11-19T04:42:26;95589.41;;;5.95;57.36
77871;BME280;67067;46.850;7.578;2023-11-19T04:43:28;95592.13;;;5.81;57.18
77871;BME280;67067;46.850;7.578;2023-11-19T04:44:29;95606.88;;;5.82;57.51
77871;BME280;67067;46.850;7.578;2023-11-19T04:45:31;95605.88;;;5.83;57.48
77871;BME280;67067;46.850;7.578;2023-11-19T04:46:34;95599.81;;;5.83;57.27
77871;BME280;67067;46.850;7.578;2023-11-19T04:47:36;95589.31;;;5.83;56.96
77871;BME280;67067;46.850;7.578;2023-11-19T04:48:38;95582.47;;;5.75;56.98
77871;BME280;67067;46.850;7.578;2023-11-19T04:49:43;95574.78;;;5.73;57.46
77871;BME280;67067;46.850;7.578;2023-11-19T04:50:48;95577.25;;;5.68;57.45
77871;BME280;67067;46.850;7.578;2023-11-19T04:51:50;95571.88;;;5.56;57.70
77871;BME280;67067;46.850;7.578;2023-11-19T04:52:52;95577.47;;;5.67;57.83
77871;BME280;67067;46.850;7.578;2023-11-19T04:53:54;95585.94;;;5.69;57.58
77871;BME280;67067;46.850;7.578;2023-11-19T04:54:55;95580.13;;;5.60;58.03
77871;BME280;67067;46.850;7.578;2023-11-19T04:55:57;95584.50;;;5.73;57.47
77871;BME280;67067;46.850;7.578;2023-11-19T04:56:59;95578.25;;;5.74;57.58
77871;BME280;67067;46.850;7.578;2023-11-19T04:58:04;95588.13;;;5.79;57.45
77871;BME280;67067;46.850;7.578;2023-11-19T04:59:06;95602.47;;;5.76;57.70
77871;BME280;67067;46.850;7.578;2023-11-19T05:02:11;95594.56;;;5.37;58.20
77871;BME280;67067;46.850;7.578;2023-11-19T05:03:16;95597.03;;;5.25;58.69
77871;BME280;67067;46.850;7.578;2023-11-19T05:04:19;95597.44;;;5.29;58.63
77871;BME280;67067;46.850;7.578;2023-11-19T05:05:21;95603.88;;;5.33;58.34
77871;BME280;67067;46.850;7.578;2023-11-19T05:06:26;95607.69;;;5.44;58.28
77871;BME280;67067;46.850;7.578;2023-11-19T05:07:27;95598.13;;;5.50;58.37
77871;BME280;67067;46.850;7.578;2023-11-19T05:08:29;95582.81;;;5.53;58.01
77871;BME280;67067;46.850;7.578;2023-11-19T05:09:31;95586.63;;;5.57;57.94
77871;BME280;67067;46.850;7.578;2023-11-19T05:10:33;95585.63;;;5.52;58.05
77871;BME280;67067;46.850;7.578;2023-11-19T05:11:35;95579.34;;;5.59;58.08
77871;BME280;67067;46.850;7.578;2023-11-19T05:12:37;95581.91;;;5.66;57.79
77871;BME280;67067;46.850;7.578;2023-11-19T05:13:38;95585.63;;;5.58;58.06
77871;BME280;67067;46.850;7.578;2023-11-19T05:14:43;95582.50;;;5.68;57.69
77871;BME280;67067;46.850;7.578;2023-11-19T05:15:51;95579.47;;;5.71;57.72
77871;BME280;67067;46.850;7.578;2023-11-19T05:16:52;95570.66;;;5.59;57.86
77871;BME280;67067;46.850;7.578;2023-11-19T05:17:57;95580.47;;;5.70;57.84
77871;BME280;67067;46.850;7.578;2023-11-19T05:18:59;95581.66;;;5.74;57.81
77871;BME280;67067;46.850;7.578;2023-11-19T05:20:01;95580.44;;;5.77;57.78
77871;BME280;67067;46.850;7.578;2023-11-19T05:21:05;95576.81;;;5.78;57.72
77871;BME280;67067;46.850;7.578;2023-11-19T05:22:08;95587.72;;;5.75;57.86
77871;BME280;67067;46.850;7.578;2023-11-19T05:23:10;95580.72;;;5.62;58.31
77871;BME280;67067;46.850;7.578;2023-11-19T05:24:22;95587.13;;;5.73;57.88
77871;BME280;67067;46.850;7.578;2023-11-19T05:25:24;95588.72;;;5.81;57.67
77871;BME280;67067;46.850;7.578;2023-11-19T05:26:30;95590.69;;;5.85;58.00
77871;BME280;67067;46.850;7.578;2023-11-19T05:27:32;95583.41;;;5.87;57.84
77871;BME280;67067;46.850;7.578;2023-11-19T05:28:34;95581.38;;;5.90;57.82
77871;BME280;67067;46.850;7.578;2023-11-19T05:29:37;95589.06;;;5.91;57.49
77871;BME280;67067;46.850;7.578;2023-11-19T05:30:40;95584.81;;;5.90;57.47
77871;BME280;67067;46.850;7.578;2023-11-19T05:31:42;95589.66;;;5.86;57.83
77871;BME280;67067;46.850;7.578;2023-11-19T05:32:45;95597.72;;;5.92;57.50
77871;BME280;67067;46.850;7.578;2023-11-19T05:33:47;95595.34;;;5.83;57.93
77871;BME280;67067;46.850;7.578;2023-11-19T05:34:49;95597.53;;;5.93;57.83
77871;BME280;67067;46.850;7.578;2023-11-19T05:35:55;95589.41;;;5.95;57.62
77871;BME280;67067;46.850;7.578;2023-11-19T05:36:58;95599.72;;;5.96;57.58
77871;BME280;67067;46.850;7.578;2023-11-19T05:38:00;95599.72;;;5.96;57.56
77871;BME280;67067;46.850;7.578;2023-11-19T05:39:08;95602.72;;;6.00;57.41
77871;BME280;67067;46.850;7.578;2023-11-19T05:40:10;95595.84;;;5.99;57.75
77871;BME280;67067;46.850;7.578;2023-11-19T05:41:17;95595.50;;;5.95;57.63
77871;BME280;67067;46.850;7.578;2023-11-19T05:42:19;95588.50;;;5.82;57.77
77871;BME280;67067;46.850;7.578;2023-11-19T05:43:21;95591.72;;;5.84;58.08
77871;BME280;67067;46.850;7.578;2023-11-19T05:44:22;95597.94;;;5.90;57.61
77871;BME280;67067;46.850;7.578;2023-11-19T05:45:24;95602.06;;;5.79;57.96
77871;BME280;67067;46.850;7.578;2023-11-19T05:46:26;95593.47;;;5.91;57.86
77871;BME280;67067;46.850;7.578;2023-11-19T05:47:30;95594.66;;;5.95;57.60
77871;BME280;67067;46.850;7.578;2023-11-19T05:48:33;95599.50;;;5.98;57.87
77871;BME280;67067;46.850;7.578;2023-11-19T05:49:35;95592.03;;;5.95;57.85
77871;BME280;67067;46.850;7.578;2023-11-19T05:50:37;95600.94;;;5.94;57.75
77871;BME280;67067;46.850;7.578;2023-11-19T05:51:41;95593.47;;;5.91;58.08
77871;BME280;67067;46.850;7.578;2023-11-19T05:52:42;95596.38;;;5.82;58.37
77871;BME280;67067;46.850;7.578;2023-11-19T05:53:47;95595.09;;;5.92;57.99
77871;BME280;67067;46.850;7.578;2023-11-19T05:54:51;95596.88;;;5.98;57.79